Terminal Aerodrome Forecast
Issued by NWS

Home | Current Version | Previous Version | Text Only | Print | Product List | Glossary On
Versions: 1 2 3 4 5 6 7 8 9 10 11 12 13 14 15 16
000
FTUS46 KPDT 241100
TAFALW
TAF
KALW 241120Z 2412/2512 18010KT P6SM OVC070
     FM241800 23014G24KT P6SM BKN060
     FM250300 20008KT P6SM SKC
     FM250800 12006KT P6SM SKC=

USA.gov is the U.S. government's official web portal to all federal, state and local government web resources and services.